createdAt,value
2018-08-16T00:02:29.667Z,28.70
2018-08-16T00:05:05.197Z,29.17
2018-08-16T00:07:40.745Z,29.27
2018-08-16T00:10:17.338Z,27.40
2018-08-16T00:12:52.867Z,28.50
2018-08-16T00:15:28.378Z,28.60
2018-08-16T00:18:03.990Z,29.73
2018-08-16T00:20:39.413Z,30.73
2018-08-16T00:23:14.925Z,28.20
2018-08-16T00:25:50.377Z,29.50
2018-08-16T00:28:25.864Z,30.57
2018-08-16T00:31:01.405Z,28.47
2018-08-16T00:33:36.874Z,27.67
2018-08-16T00:36:12.168Z,31.10
2018-08-16T00:38:47.636Z,30.60
2018-08-16T00:41:23.271Z,29.37
2018-08-16T00:43:58.754Z,31.12
2018-08-16T00:46:34.239Z,30.32
2018-08-16T00:49:09.944Z,28.70
2018-08-16T00:51:45.676Z,29.02
2018-08-16T00:54:21.086Z,32.28
2018-08-16T00:56:56.654Z,33.17
2018-08-16T00:59:32.027Z,34.00
2018-08-16T01:02:07.607Z,32.57
2018-08-16T01:04:43.245Z,33.55
2018-08-16T01:07:18.804Z,35.20
2018-08-16T01:09:54.297Z,35.30
2018-08-16T01:12:29.936Z,34.80
2018-08-16T01:15:06.948Z,36.10
2018-08-16T01:17:42.565Z,33.92
2018-08-16T01:20:18.024Z,35.20
2018-08-16T01:22:53.533Z,34.18
2018-08-16T01:25:28.967Z,37.80
2018-08-16T01:28:04.444Z,34.98
2018-08-16T01:30:39.814Z,34.30
2018-08-16T01:33:15.335Z,37.53
2018-08-16T01:35:50.815Z,34.67
2018-08-16T01:38:26.233Z,35.70
2018-08-16T01:41:01.644Z,37.23
2018-08-16T01:43:36.874Z,33.92
2018-08-16T01:46:12.271Z,38.38
2018-08-16T01:48:47.474Z,37.13
2018-08-16T01:51:22.775Z,40.73
2018-08-16T01:54:04.709Z,37.80
2018-08-16T01:56:39.978Z,40.90
2018-08-16T01:59:15.574Z,41.00
2018-08-16T02:01:51.549Z,43.52
2018-08-16T02:04:26.936Z,40.67
2018-08-16T02:07:02.729Z,42.55
2018-08-16T02:09:38.227Z,37.83
2018-08-16T02:12:13.918Z,37.88
2018-08-16T02:14:49.322Z,37.90
2018-08-16T02:17:24.780Z,39.55
2018-08-16T02:20:00.260Z,39.45
2018-08-16T02:22:35.644Z,40.90
2018-08-16T02:25:11.225Z,39.45
2018-08-16T02:27:46.854Z,41.42
2018-08-16T02:30:22.468Z,40.52
2018-08-16T02:32:57.980Z,37.95
2018-08-16T02:35:33.495Z,40.15
2018-08-16T02:38:09.033Z,39.65
2018-08-16T02:40:44.641Z,40.38
2018-08-16T02:43:20.055Z,37.67
2018-08-16T02:45:55.453Z,37.88
2018-08-16T02:48:30.527Z,35.00
2018-08-16T02:51:06.021Z,37.90
2018-08-16T02:53:41.336Z,36.88
2018-08-16T02:56:16.956Z,40.07
2018-08-16T02:58:52.427Z,36.38
2018-08-16T03:01:28.204Z,36.98
2018-08-16T03:04:03.435Z,38.58
2018-08-16T03:06:38.947Z,38.05
2018-08-16T03:09:14.294Z,37.48
2018-08-16T03:11:49.697Z,36.00
2018-08-16T03:14:25.267Z,37.80
2018-08-16T03:17:00.857Z,38.33
2018-08-16T03:19:36.317Z,36.23
2018-08-16T03:22:11.906Z,39.15
2018-08-16T03:24:47.377Z,37.35
2018-08-16T03:27:22.936Z,37.00
2018-08-16T03:29:58.508Z,35.40
2018-08-16T03:32:34.046Z,36.88
2018-08-16T03:35:09.683Z,36.65
2018-08-16T03:37:45.244Z,37.55
2018-08-16T03:40:20.833Z,39.58
2018-08-16T03:42:56.215Z,37.50
2018-08-16T03:45:31.686Z,39.95
2018-08-16T03:48:07.096Z,37.42
2018-08-16T03:50:42.528Z,37.75
2018-08-16T03:53:17.984Z,36.98
2018-08-16T03:55:53.427Z,36.93
2018-08-16T03:58:28.922Z,35.65
2018-08-16T04:01:04.425Z,37.45
2018-08-16T04:03:39.807Z,36.42
2018-08-16T04:06:15.161Z,35.38
2018-08-16T04:08:50.644Z,35.15
2018-08-16T04:11:26.015Z,35.52
2018-08-16T04:14:01.387Z,33.33
2018-08-16T04:16:36.807Z,35.60
2018-08-16T04:19:12.310Z,35.37
2018-08-16T04:21:47.715Z,34.35
2018-08-16T04:24:23.156Z,36.13
2018-08-16T04:26:58.534Z,32.83
2018-08-16T04:29:33.879Z,33.67
2018-08-16T04:32:09.129Z,33.27
2018-08-16T04:34:44.827Z,32.67
2018-08-16T04:37:20.276Z,33.45
2018-08-16T04:39:55.837Z,30.57
2018-08-16T04:42:31.196Z,29.42
2018-08-16T04:45:07.883Z,31.33
2018-08-16T04:47:43.374Z,30.85
2018-08-16T04:50:18.697Z,32.03
2018-08-16T04:52:54.090Z,27.73
2018-08-16T04:55:29.663Z,29.47
2018-08-16T04:58:11.898Z,28.50
2018-08-16T05:00:47.495Z,29.37
2018-08-16T05:03:23.001Z,28.70
2018-08-16T05:05:58.376Z,27.20
2018-08-16T05:08:33.640Z,28.03
2018-08-16T05:11:09.096Z,25.70
2018-08-16T05:13:44.435Z,29.70
2018-08-16T05:16:19.787Z,29.07
2018-08-16T05:18:55.155Z,26.90
2018-08-16T05:21:30.828Z,27.50
2018-08-16T05:24:06.383Z,27.00
2018-08-16T05:26:41.756Z,27.67
2018-08-16T05:29:17.206Z,30.17
2018-08-16T05:31:52.869Z,24.90
2018-08-16T05:34:28.372Z,27.83
2018-08-16T05:37:03.996Z,26.43
2018-08-16T05:39:39.415Z,27.80
2018-08-16T05:42:14.893Z,24.60
2018-08-16T05:44:50.544Z,25.17
2018-08-16T05:47:26.114Z,27.23
2018-08-16T05:50:01.495Z,26.00
2018-08-16T05:52:36.855Z,25.20
2018-08-16T05:55:12.294Z,26.30
2018-08-16T05:57:47.901Z,26.90
2018-08-16T06:00:23.367Z,23.80
2018-08-16T06:02:58.925Z,24.27
2018-08-16T06:05:34.490Z,27.33
2018-08-16T06:08:09.934Z,25.70
2018-08-16T06:10:45.409Z,27.73
2018-08-16T06:13:20.774Z,23.60
2018-08-16T06:15:56.325Z,26.00
2018-08-16T06:18:32.096Z,23.87
2018-08-16T06:21:08.279Z,25.53
2018-08-16T06:23:43.987Z,27.13
2018-08-16T06:26:19.426Z,23.30
2018-08-16T06:28:55.035Z,24.87
2018-08-16T06:31:30.555Z,24.63
2018-08-16T06:34:06.395Z,25.17
2018-08-16T06:36:41.998Z,23.83
2018-08-16T06:39:17.525Z,22.70
2018-08-16T06:41:53.198Z,22.13
2018-08-16T06:44:28.574Z,22.00
2018-08-16T06:47:04.227Z,23.40
2018-08-16T06:49:39.727Z,22.90
2018-08-16T06:52:15.354Z,21.90
2018-08-16T06:54:50.966Z,20.90
2018-08-16T06:57:26.477Z,24.13
2018-08-16T07:00:02.617Z,25.63
2018-08-16T07:02:38.131Z,22.23
2018-08-16T07:05:13.521Z,23.10
2018-08-16T07:07:48.876Z,24.77
2018-08-16T07:10:24.448Z,24.00
2018-08-16T07:13:00.127Z,23.73
2018-08-16T07:15:35.578Z,25.10
2018-08-16T07:18:11.349Z,26.53
2018-08-16T07:20:47.527Z,25.50
2018-08-16T07:23:23.600Z,27.70
2018-08-16T07:25:59.158Z,23.90
2018-08-16T07:28:34.404Z,25.00
2018-08-16T07:31:10.110Z,27.20
2018-08-16T07:33:45.471Z,27.20
2018-08-16T07:36:20.907Z,26.20
2018-08-16T07:38:56.290Z,27.00
2018-08-16T07:41:31.955Z,25.70
2018-08-16T07:44:07.706Z,24.80
2018-08-16T07:46:43.197Z,26.07
2018-08-16T07:49:18.868Z,24.63
2018-08-16T07:51:54.572Z,25.83
2018-08-16T07:54:30.123Z,23.93
2018-08-16T07:57:05.708Z,23.00
2018-08-16T07:59:40.928Z,25.80
2018-08-16T08:02:16.115Z,25.40
2018-08-16T08:04:51.576Z,25.47
2018-08-16T08:07:26.898Z,21.40
2018-08-16T08:10:02.496Z,22.60
2018-08-16T08:12:38.235Z,20.80
2018-08-16T08:15:14.758Z,19.23
2018-08-16T08:17:50.453Z,19.03
2018-08-16T08:20:26.015Z,16.77
2018-08-16T08:23:01.687Z,18.10
2018-08-16T08:25:36.967Z,18.57
2018-08-16T08:28:12.305Z,18.00
2018-08-16T08:30:47.886Z,17.77
2018-08-16T08:36:33.818Z,17.60
2018-08-16T08:39:10.080Z,16.53
2018-08-16T08:41:45.505Z,15.13
2018-08-16T08:44:22.970Z,13.90
2018-08-16T08:46:58.646Z,14.90
2018-08-16T08:49:33.992Z,16.60
2018-08-16T08:52:09.573Z,16.13
2018-08-16T08:54:56.945Z,14.90
2018-08-16T08:57:43.541Z,15.10
2018-08-16T09:00:18.865Z,14.67
2018-08-16T09:02:54.248Z,12.77
2018-08-16T09:05:29.528Z,12.30
2018-08-16T09:08:04.819Z,12.07
2018-08-16T09:10:50.004Z,13.80
2018-08-16T09:13:37.135Z,14.27
2018-08-16T09:16:17.187Z,16.53
2018-08-16T09:18:52.627Z,14.80
2018-08-16T09:21:28.624Z,17.00
2018-08-16T09:24:03.905Z,15.90
2018-08-16T09:26:41.637Z,15.87
2018-08-16T09:30:25.702Z,14.87
2018-08-16T09:33:12.084Z,15.57
2018-08-16T09:35:47.640Z,12.10
2018-08-16T09:38:23.119Z,13.40
2018-08-16T09:40:58.608Z,13.93
2018-08-16T09:43:33.880Z,14.40
2018-08-16T09:47:19.160Z,14.13
2018-08-16T09:49:54.566Z,12.20
2018-08-16T09:52:29.655Z,12.90
2018-08-16T09:55:05.109Z,12.80
2018-08-16T09:57:40.473Z,12.00
2018-08-16T10:00:15.968Z,12.43
2018-08-16T10:02:51.297Z,12.10
2018-08-16T10:05:26.905Z,13.03
2018-08-16T10:08:01.987Z,13.27
2018-08-16T10:10:37.228Z,13.83
2018-08-16T10:13:12.709Z,13.00
2018-08-16T10:15:48.092Z,11.60
2018-08-16T10:18:23.334Z,11.47
2018-08-16T10:20:58.753Z,13.60
2018-08-16T10:23:34.113Z,12.90
2018-08-16T10:26:09.354Z,13.53
2018-08-16T10:28:45.299Z,11.67
2018-08-16T10:31:20.356Z,11.57
2018-08-16T10:33:55.955Z,11.90
2018-08-16T10:36:31.446Z,12.10
2018-08-16T10:39:11.848Z,13.00
2018-08-16T10:41:47.263Z,12.10
2018-08-16T10:44:22.485Z,11.20
2018-08-16T10:46:57.748Z,13.37
2018-08-16T10:49:32.985Z,11.53
2018-08-16T10:52:08.278Z,13.50
2018-08-16T10:54:43.660Z,12.30
2018-08-16T10:57:19.202Z,12.40
2018-08-16T10:59:54.747Z,11.60
2018-08-16T11:02:30.294Z,12.20
2018-08-16T11:05:05.796Z,11.57
2018-08-16T11:07:41.135Z,11.57
2018-08-16T11:10:16.459Z,11.40
2018-08-16T11:12:51.778Z,11.27
2018-08-16T11:15:27.123Z,13.70
2018-08-16T11:18:02.354Z,11.87
2018-08-16T11:20:37.828Z,11.73
2018-08-16T11:23:14.337Z,10.70
2018-08-16T11:25:49.714Z,11.00
2018-08-16T11:28:26.368Z,10.10
2018-08-16T11:31:02.084Z,11.77
2018-08-16T11:33:37.451Z,11.27
2018-08-16T11:36:12.814Z,11.50
2018-08-16T11:38:48.398Z,11.10
2018-08-16T11:41:23.734Z,9.77
2018-08-16T11:43:59.022Z,12.93
2018-08-16T11:46:34.453Z,13.43
2018-08-16T11:49:10.984Z,11.60
2018-08-16T11:51:46.466Z,9.77
2018-08-16T11:54:21.840Z,10.43
2018-08-16T11:56:57.395Z,10.53
2018-08-16T11:59:32.680Z,10.90
2018-08-16T12:02:07.968Z,10.37
2018-08-16T12:04:43.501Z,11.00
2018-08-16T12:07:19.157Z,10.80
2018-08-16T12:09:54.782Z,9.90
2018-08-16T12:12:29.999Z,11.40
2018-08-16T12:15:07.159Z,13.50
2018-08-16T12:17:42.922Z,10.30
2018-08-16T12:20:18.174Z,11.80
2018-08-16T12:22:53.534Z,12.07
2018-08-16T12:25:29.112Z,11.40
2018-08-16T12:28:04.673Z,10.93
2018-08-16T12:30:40.012Z,10.33
2018-08-16T12:33:15.642Z,9.43
2018-08-16T12:35:51.184Z,9.80
2018-08-16T12:38:26.446Z,11.50
2018-08-16T12:41:01.844Z,12.03
2018-08-16T12:43:37.530Z,11.07
2018-08-16T12:46:12.865Z,11.73
2018-08-16T12:48:48.103Z,9.27
2018-08-16T12:51:23.400Z,10.37
2018-08-16T12:53:58.838Z,9.57
2018-08-16T12:56:34.329Z,10.80
2018-08-16T12:59:09.814Z,9.43
2018-08-16T13:01:45.111Z,9.33
2018-08-16T13:04:20.305Z,10.57
2018-08-16T13:06:55.900Z,10.40
2018-08-16T13:09:31.257Z,10.40
2018-08-16T13:12:06.777Z,9.90
2018-08-16T13:14:42.251Z,7.93
2018-08-16T13:17:17.830Z,9.90
2018-08-16T13:19:53.163Z,11.57
2018-08-16T13:22:28.708Z,9.70
2018-08-16T13:25:04.462Z,8.53
2018-08-16T13:27:39.855Z,11.10
2018-08-16T13:30:15.008Z,10.90
2018-08-16T13:32:50.351Z,10.03
2018-08-16T13:35:25.865Z,9.00
2018-08-16T13:38:01.143Z,9.23
2018-08-16T13:40:36.485Z,8.00
2018-08-16T13:43:11.891Z,9.93
2018-08-16T13:45:47.354Z,7.93
2018-08-16T13:48:22.855Z,7.80
2018-08-16T13:50:58.243Z,8.57
2018-08-16T13:53:33.692Z,7.67
2018-08-16T13:56:09.017Z,7.10
2018-08-16T13:58:46.674Z,7.73
2018-08-16T14:01:22.637Z,7.43
2018-08-16T14:03:58.209Z,9.23
2018-08-16T14:06:33.345Z,9.67
2018-08-16T14:09:10.288Z,8.40
2018-08-16T14:11:45.428Z,8.73
2018-08-16T14:14:20.675Z,8.63
2018-08-16T14:16:56.005Z,10.70
2018-08-16T14:19:31.182Z,9.90
2018-08-16T14:22:06.628Z,8.70
2018-08-16T14:24:41.927Z,8.20
2018-08-16T14:27:17.189Z,8.30
2018-08-16T14:29:52.485Z,8.20
2018-08-16T14:32:27.788Z,7.90
2018-08-16T14:35:03.138Z,7.73
2018-08-16T14:37:38.334Z,8.60
2018-08-16T14:40:13.678Z,8.60
2018-08-16T14:42:49.225Z,7.93
2018-08-16T14:45:24.685Z,8.63
2018-08-16T14:48:04.090Z,9.07
2018-08-16T14:50:40.719Z,9.07
2018-08-16T14:53:16.125Z,8.80
2018-08-16T14:55:51.350Z,10.00
2018-08-16T14:58:26.908Z,9.90
2018-08-16T15:01:02.329Z,8.60
2018-08-16T15:03:37.575Z,8.83
2018-08-16T15:06:13.036Z,9.07
2018-08-16T15:08:48.351Z,9.53
2018-08-16T15:11:23.937Z,9.97
2018-08-16T15:13:59.339Z,12.20
2018-08-16T15:16:34.880Z,10.87
2018-08-16T15:19:10.374Z,10.40
2018-08-16T15:21:45.806Z,11.30
2018-08-16T15:24:21.537Z,10.70
2018-08-16T15:26:56.901Z,10.80
2018-08-16T15:29:32.181Z,13.13
2018-08-16T15:32:07.686Z,15.73
2018-08-16T15:34:42.675Z,12.77
2018-08-16T15:37:17.836Z,14.37
2018-08-16T15:39:52.989Z,15.07
2018-08-16T15:42:28.216Z,14.10
2018-08-16T15:45:03.504Z,14.77
2018-08-16T15:47:38.909Z,14.67
2018-08-16T15:50:14.318Z,14.40
2018-08-16T15:52:49.616Z,18.17
2018-08-16T15:55:25.079Z,16.33
2018-08-16T15:58:00.384Z,17.23
2018-08-16T16:00:35.484Z,18.77
2018-08-16T16:03:10.688Z,17.20
2018-08-16T16:05:46.309Z,17.50
2018-08-16T16:08:21.238Z,17.13
2018-08-16T16:10:56.612Z,17.27
2018-08-16T16:13:31.879Z,17.00
2018-08-16T16:16:07.234Z,17.50
2018-08-16T16:18:42.563Z,17.90
2018-08-16T16:21:18.047Z,17.83
2018-08-16T16:23:53.325Z,19.90
2018-08-16T16:26:28.587Z,14.87
2018-08-16T16:29:03.917Z,17.93
2018-08-16T16:31:39.305Z,16.23
2018-08-16T16:34:14.776Z,17.63
2018-08-16T16:36:50.338Z,17.00
2018-08-16T16:39:26.108Z,18.53
2018-08-16T16:42:01.638Z,16.47
2018-08-16T16:44:37.014Z,17.80
2018-08-16T16:47:12.469Z,17.70
2018-08-16T16:49:48.182Z,16.30
2018-08-16T16:52:23.437Z,15.77
2018-08-16T16:54:58.834Z,15.53
2018-08-16T16:57:34.366Z,19.00
2018-08-16T17:00:10.064Z,14.80
2018-08-16T17:02:45.397Z,16.27
2018-08-16T17:05:20.890Z,14.97
2018-08-16T17:07:56.303Z,16.13
2018-08-16T17:10:31.679Z,16.93
2018-08-16T17:13:07.044Z,15.17
2018-08-16T17:15:42.657Z,17.20
2018-08-16T17:18:17.994Z,14.03
2018-08-16T17:20:53.326Z,13.63
2018-08-16T17:23:28.588Z,12.57
2018-08-16T17:26:04.257Z,13.10
2018-08-16T17:28:39.935Z,10.87
2018-08-16T17:31:16.285Z,11.80
2018-08-16T17:33:51.887Z,11.83
2018-08-16T17:36:27.089Z,11.83
2018-08-16T17:39:02.382Z,12.70
2018-08-16T17:41:37.767Z,11.60
2018-08-16T17:44:13.221Z,13.40
2018-08-16T17:46:48.512Z,13.17
2018-08-16T17:49:24.137Z,12.77
2018-08-16T17:51:59.570Z,11.57
2018-08-16T17:54:34.915Z,12.93
2018-08-16T17:57:10.192Z,11.73
2018-08-16T17:59:45.702Z,10.83
2018-08-16T18:02:20.820Z,10.10
2018-08-16T18:04:56.521Z,9.90
2018-08-16T18:07:31.967Z,9.47
2018-08-16T18:10:08.149Z,9.30
2018-08-16T18:12:43.550Z,10.60
2018-08-16T18:15:18.987Z,9.60
2018-08-16T18:17:54.345Z,9.67
2018-08-16T18:20:29.810Z,10.20
2018-08-16T18:23:05.198Z,9.00
2018-08-16T18:25:40.519Z,9.70
2018-08-16T18:28:16.002Z,8.40
2018-08-16T18:30:51.224Z,8.97
2018-08-16T18:33:26.401Z,10.00
2018-08-16T18:36:01.732Z,9.60
2018-08-16T18:38:37.241Z,9.20
2018-08-16T18:41:12.882Z,8.97
2018-08-16T18:43:48.224Z,8.57
2018-08-16T18:46:23.878Z,7.90
2018-08-16T18:48:59.397Z,8.50
2018-08-16T18:51:34.859Z,7.70
2018-08-16T18:54:10.003Z,7.53
2018-08-16T18:56:45.345Z,7.77
2018-08-16T18:59:20.838Z,8.20
2018-08-16T19:01:56.463Z,8.10
2018-08-16T19:04:31.868Z,8.23
2018-08-16T19:07:07.169Z,8.63
2018-08-16T19:09:42.396Z,8.40
2018-08-16T19:12:17.761Z,8.60
2018-08-16T19:14:52.919Z,8.30
2018-08-16T19:17:28.180Z,8.10
2018-08-16T19:20:03.783Z,6.63
2018-08-16T19:22:39.258Z,9.10
2018-08-16T19:25:14.534Z,7.77
2018-08-16T19:27:49.741Z,7.80
2018-08-16T19:30:24.985Z,8.50
2018-08-16T19:33:00.293Z,8.27
2018-08-16T19:35:35.796Z,9.17
2018-08-16T19:38:11.129Z,9.23
2018-08-16T19:40:46.439Z,10.97
2018-08-16T19:43:22.795Z,9.93
2018-08-16T19:45:59.864Z,11.43
2018-08-16T19:48:35.298Z,12.83
2018-08-16T19:51:10.361Z,12.67
2018-08-16T19:53:45.738Z,13.13
2018-08-16T19:56:21.074Z,13.83
2018-08-16T19:58:56.323Z,13.40
2018-08-16T20:01:31.495Z,13.77
2018-08-16T20:04:07.247Z,14.00
2018-08-16T20:06:42.582Z,13.03
2018-08-16T20:09:17.708Z,12.43
2018-08-16T20:11:52.956Z,13.17
2018-08-16T20:14:28.282Z,11.90
2018-08-16T20:17:03.672Z,9.83
2018-08-16T20:19:38.776Z,10.10
2018-08-16T20:22:18.024Z,10.50
2018-08-16T20:24:53.519Z,10.57
2018-08-16T20:27:28.908Z,10.20
2018-08-16T20:30:04.895Z,10.87
2018-08-16T20:32:40.036Z,9.63
2018-08-16T20:35:15.157Z,10.40
2018-08-16T20:37:50.629Z,10.87
2018-08-16T20:40:25.987Z,9.73
2018-08-16T20:43:01.113Z,11.23
2018-08-16T20:45:36.599Z,11.67
2018-08-16T20:48:11.916Z,11.80
2018-08-16T20:50:47.348Z,10.87
2018-08-16T20:53:22.853Z,10.53
2018-08-16T20:55:58.157Z,10.60
2018-08-16T20:58:33.664Z,9.40
2018-08-16T21:01:08.949Z,10.20
2018-08-16T21:03:44.305Z,10.00
2018-08-16T21:06:19.824Z,10.90
2018-08-16T21:08:55.902Z,10.20
2018-08-16T21:11:31.322Z,11.03
2018-08-16T21:14:06.752Z,10.70
2018-08-16T21:16:42.085Z,10.73
2018-08-16T21:19:17.262Z,10.30
2018-08-16T21:21:52.685Z,10.40
2018-08-16T21:24:28.177Z,10.43
2018-08-16T21:27:03.564Z,11.70
2018-08-16T21:29:38.940Z,12.27
2018-08-16T21:32:14.378Z,11.77
2018-08-16T21:34:50.016Z,11.50
2018-08-16T21:37:25.559Z,11.87
2018-08-16T21:40:00.972Z,11.80
2018-08-16T21:42:36.233Z,12.27
2018-08-16T21:45:11.443Z,11.70
2018-08-16T21:47:47.100Z,11.93
2018-08-16T21:50:23.448Z,10.57
2018-08-16T21:52:58.904Z,11.20
2018-08-16T21:55:34.136Z,12.07
2018-08-16T21:58:09.677Z,12.10
2018-08-16T22:00:53.137Z,12.17
2018-08-16T22:03:29.111Z,10.70
2018-08-16T22:06:06.554Z,11.53
2018-08-16T22:08:44.836Z,11.13
2018-08-16T22:11:20.497Z,10.00
2018-08-16T22:13:56.017Z,12.00
2018-08-16T22:16:31.455Z,11.73
2018-08-16T22:19:08.038Z,12.33
2018-08-16T22:21:43.414Z,11.50
2018-08-16T22:24:19.554Z,11.50
2018-08-16T22:26:55.136Z,12.47
2018-08-16T22:29:30.681Z,12.40
2018-08-16T22:32:06.295Z,11.30
2018-08-16T22:34:41.557Z,11.77
2018-08-16T22:37:17.154Z,12.77
2018-08-16T22:39:52.773Z,13.73
2018-08-16T22:42:28.379Z,12.80
2018-08-16T22:45:04.326Z,13.13
2018-08-16T22:47:42.073Z,13.07
2018-08-16T22:50:18.392Z,15.47
2018-08-16T22:52:55.964Z,13.60
2018-08-16T22:55:31.469Z,12.40
2018-08-16T22:58:07.339Z,12.63
2018-08-16T23:00:42.881Z,11.73
2018-08-16T23:03:18.353Z,11.90
2018-08-16T23:05:53.906Z,10.50
2018-08-16T23:08:29.330Z,11.50
2018-08-16T23:11:04.776Z,12.53
2018-08-16T23:13:40.234Z,11.80
2018-08-16T23:16:15.629Z,13.57
2018-08-16T23:18:50.933Z,11.33
2018-08-16T23:21:26.224Z,11.50
2018-08-16T23:24:01.467Z,12.13
2018-08-16T23:26:37.059Z,11.50
2018-08-16T23:29:12.427Z,12.03
2018-08-16T23:31:48.124Z,12.03
2018-08-16T23:34:23.686Z,11.03
2018-08-16T23:36:58.913Z,13.57
2018-08-16T23:39:34.405Z,11.80
2018-08-16T23:42:10.164Z,11.83
2018-08-16T23:44:45.569Z,13.03
2018-08-16T23:47:24.024Z,12.73
2018-08-16T23:49:59.437Z,11.33
2018-08-16T23:52:35.237Z,13.10
2018-08-16T23:55:10.645Z,11.70
2018-08-16T23:57:46.048Z,13.47
